Search for airport 
image banner adimage banner ad
image banner ad

WBKA - Semporna

Located in , Malaysia

ICAO - WBKA, IATA - SMM

Data provided by Airmate  

General information

Coordinates: N4°26'59" E118°35'47"
Elevation is 60 feet MSL.
 
Rated:
View ratings: [VIEW]


View others Airports in Sabah

Operational data

Open for public use
Current time UTC:
Current local time:
Weather at : WBKW - Tawau ( 55 km )
METAR: WBKW 202000Z 00000KT 9999 FEW017 BKN300 25/24 Q1009
TAF: TAF WBKW 201700Z 2018/2118 33005KT 9000 FEW017 BECMG 2023/2101 16007KT
View NOTAMs / SUP AIP / TFR affecting this airport [VIEW]
Communications frequencies: [VIEW]

Runways:

RWY identifierQFULength (ft)Width (ft)SurfaceLDA (ft)
1800
3600

Airport contact information

Address: Malaysia

Satellite view of WBKA